createdAt,value
2023-02-01T08:21:16.051Z,92.85
2023-02-01T08:23:44.590Z,91.19
2023-02-01T08:26:15.634Z,91.47
2023-02-01T08:28:45.751Z,91.65
2023-02-01T08:31:16.429Z,90.75
2023-02-01T08:33:45.960Z,90.05
2023-02-01T08:36:15.487Z,89.64
2023-02-01T08:38:43.695Z,89.49
2023-02-01T08:41:13.585Z,88.98
2023-02-01T08:43:42.113Z,88.26
2023-02-01T08:46:11.158Z,88.78
2023-02-01T08:48:39.932Z,88.28
2023-02-01T08:51:09.307Z,87.25
2023-02-01T08:53:39.397Z,86.87
2023-02-01T08:56:08.219Z,86.50
2023-02-01T08:58:36.291Z,84.83
2023-02-01T09:01:08.332Z,85.05
2023-02-01T09:03:36.456Z,83.64
2023-02-01T09:06:06.400Z,82.25
2023-02-01T09:08:35.321Z,82.44
2023-02-01T09:11:06.447Z,82.71
2023-02-01T09:13:34.789Z,82.00
2023-02-01T09:16:02.715Z,82.13
2023-02-01T09:18:30.764Z,81.26
2023-02-01T09:20:58.761Z,81.45
2023-02-01T09:23:26.931Z,81.79
2023-02-01T09:25:54.896Z,81.47
2023-02-01T09:28:24.187Z,81.45
2023-02-01T09:30:52.247Z,81.95
2023-02-01T09:33:22.617Z,79.69
2023-02-01T09:35:50.453Z,79.74
2023-02-01T09:38:18.321Z,78.21
2023-02-01T09:40:49.360Z,77.61
2023-02-01T09:43:28.472Z,78.43
2023-02-01T09:46:05.669Z,79.08
2023-02-01T09:48:37.162Z,79.16
2023-02-01T09:51:08.924Z,79.05
2023-02-01T09:53:40.801Z,78.67
2023-02-01T09:56:14.419Z,78.16
2023-02-01T09:58:49.686Z,77.15
2023-02-01T10:01:23.528Z,76.81
2023-02-01T10:03:52.619Z,77.71
2023-02-01T10:06:35.562Z,76.22
2023-02-01T10:09:18.225Z,76.39
2023-02-01T10:11:58.367Z,76.61
2023-02-01T10:14:46.839Z,76.52
2023-02-01T10:17:27.936Z,75.34
2023-02-01T10:20:05.389Z,74.02
2023-02-01T10:23:05.252Z,71.70
2023-02-01T10:25:37.949Z,71.97
2023-02-01T10:28:06.367Z,69.94
2023-02-01T10:30:44.112Z,65.42
2023-02-01T10:33:19.414Z,64.03
2023-02-01T10:35:48.498Z,60.85
2023-02-01T10:38:26.979Z,61.70
2023-02-01T10:40:57.443Z,61.15
2023-02-01T10:43:25.321Z,59.37
2023-02-01T10:45:54.627Z,58.77
2023-02-01T10:48:23.057Z,61.01
2023-02-01T10:50:57.628Z,61.74
2023-02-01T10:53:32.089Z,61.96
2023-02-01T10:56:00.209Z,62.02
2023-02-01T10:58:32.535Z,62.62
2023-02-01T11:01:04.404Z,63.33
2023-02-01T11:03:54.642Z,63.14
2023-02-01T11:06:29.410Z,63.80
2023-02-01T11:08:58.847Z,62.16
2023-02-01T11:11:27.851Z,61.60
2023-02-01T11:13:58.385Z,61.08
2023-02-01T11:16:35.840Z,60.31
2023-02-01T11:19:04.196Z,58.39
2023-02-01T11:21:32.419Z,56.07
2023-02-01T11:24:04.192Z,56.13
2023-02-01T11:26:35.249Z,56.41
2023-02-01T11:29:05.813Z,55.48
2023-02-01T11:31:36.999Z,56.16
2023-02-01T11:34:10.466Z,56.71
2023-02-01T11:36:39.170Z,56.86
2023-02-01T11:39:19.920Z,54.24
2023-02-01T11:42:00.641Z,53.90
2023-02-01T11:44:34.307Z,54.12
2023-02-01T11:47:26.246Z,54.84
2023-02-01T11:49:56.066Z,54.23
2023-02-01T11:52:41.700Z,54.44
2023-02-01T11:55:26.910Z,55.63
2023-02-01T11:58:07.986Z,54.51
2023-02-01T12:00:59.257Z,54.59
2023-02-01T12:04:15.931Z,53.69
2023-02-01T12:06:52.559Z,52.46
2023-02-01T12:09:53.043Z,53.97
2023-02-01T12:12:27.616Z,53.79
2023-02-01T12:15:07.718Z,54.47
2023-02-01T12:17:51.284Z,53.94
2023-02-01T12:20:46.217Z,53.76
2023-02-01T12:23:28.887Z,53.74
2023-02-01T12:26:06.951Z,52.82
2023-02-01T12:28:56.387Z,53.57
2023-02-01T12:31:39.305Z,53.61
2023-02-01T12:34:26.686Z,53.92
2023-02-01T12:37:02.700Z,53.69
2023-02-01T12:39:35.064Z,54.81
2023-02-01T12:42:11.199Z,54.01
2023-02-01T12:44:46.079Z,54.06
2023-02-01T12:47:20.580Z,55.19
2023-02-01T12:49:58.650Z,53.94
2023-02-01T12:52:38.147Z,53.81
2023-02-01T12:58:08.977Z,53.23
2023-02-01T13:00:42.035Z,52.23
2023-02-01T13:03:25.167Z,52.91
2023-02-01T13:05:58.431Z,53.67
2023-02-01T13:08:33.513Z,53.27
2023-02-01T13:11:06.026Z,52.41
2023-02-01T13:13:40.527Z,52.38
2023-02-01T13:16:19.059Z,53.06
2023-02-01T13:18:52.993Z,52.61
2023-02-01T13:21:26.612Z,52.78
2023-02-01T13:23:56.111Z,52.43
2023-02-01T13:26:24.068Z,52.08
2023-02-01T13:28:56.426Z,51.79
2023-02-01T13:31:41.462Z,52.64
2023-02-01T13:34:46.042Z,53.22
2023-02-01T13:37:39.825Z,53.49
2023-02-01T13:40:25.545Z,53.86
2023-02-01T13:42:56.536Z,54.98
2023-02-01T13:45:27.451Z,55.22
2023-02-01T13:47:58.271Z,55.53
2023-02-01T13:50:29.979Z,55.98
2023-02-01T13:53:00.390Z,55.09
2023-02-01T13:55:33.277Z,54.87
2023-02-01T13:58:06.273Z,53.49
2023-02-01T14:00:37.217Z,54.66
2023-02-01T14:03:23.887Z,54.24
2023-02-01T14:06:16.644Z,53.58
2023-02-01T14:08:48.334Z,54.74
2023-02-01T14:11:40.884Z,55.22
2023-02-01T14:14:42.928Z,55.37
2023-02-01T14:17:41.019Z,55.79
2023-02-01T14:20:50.175Z,56.55
2023-02-01T14:23:22.999Z,55.75
2023-02-01T14:26:09.754Z,55.82
2023-02-01T14:28:44.586Z,55.75
2023-02-01T14:31:34.320Z,56.54
2023-02-01T14:34:10.921Z,56.10
2023-02-01T14:36:45.212Z,57.09
2023-02-01T14:39:31.200Z,57.90
2023-02-01T14:42:03.409Z,57.94
2023-02-01T14:44:36.783Z,57.20
2023-02-01T14:47:23.372Z,58.19
2023-02-01T14:49:57.631Z,57.99
2023-02-01T14:52:34.784Z,58.45
2023-02-01T14:55:10.209Z,58.88
2023-02-01T14:57:42.071Z,58.82
2023-02-01T15:00:21.129Z,59.17
2023-02-01T15:02:52.019Z,59.48
2023-02-01T15:05:31.923Z,59.66
2023-02-01T15:08:04.680Z,59.77
2023-02-01T15:10:35.855Z,59.52
2023-02-01T15:13:03.796Z,61.19
2023-02-01T15:15:37.667Z,61.09
2023-02-01T15:18:06.127Z,61.01
2023-02-01T15:20:34.933Z,61.39
2023-02-01T15:23:06.448Z,61.73
2023-02-01T15:25:36.977Z,61.78
2023-02-01T15:28:07.058Z,61.98
2023-02-01T15:30:38.376Z,62.70
2023-02-01T15:33:08.659Z,62.68
2023-02-01T15:35:44.556Z,62.91
2023-02-01T15:38:21.812Z,63.33
2023-02-01T15:40:58.014Z,63.23
2023-02-01T15:43:27.298Z,63.21
2023-02-01T15:46:00.421Z,63.68
2023-02-01T15:48:31.557Z,63.84
2023-02-01T15:50:59.628Z,63.83
2023-02-01T15:53:32.467Z,64.03
2023-02-01T15:56:03.126Z,64.29
2023-02-01T15:58:32.881Z,64.00
2023-02-01T16:01:07.356Z,64.08
2023-02-01T16:03:39.398Z,64.18
2023-02-01T16:06:09.613Z,64.39
2023-02-01T16:08:38.757Z,64.30
2023-02-01T16:11:24.557Z,64.47
2023-02-01T16:13:52.440Z,64.05
2023-02-01T16:16:21.815Z,63.69
2023-02-01T16:18:49.987Z,63.80
2023-02-01T16:21:17.931Z,63.83
2023-02-01T16:23:46.838Z,63.93
2023-02-01T16:26:14.952Z,63.89
2023-02-01T16:28:43.178Z,64.14
2023-02-01T16:31:28.796Z,64.57
2023-02-01T16:34:18.280Z,64.53
2023-02-01T16:36:53.796Z,64.22
2023-02-01T16:39:25.794Z,64.78
2023-02-01T16:41:55.493Z,64.19
2023-02-01T16:44:32.389Z,63.91
2023-02-01T16:49:56.611Z,64.29
2023-02-01T16:52:29.700Z,64.37
2023-02-01T16:54:59.388Z,64.50
2023-02-01T16:57:32.062Z,64.27
2023-02-01T17:00:14.617Z,64.28
2023-02-01T17:02:52.855Z,64.22
2023-02-01T17:05:23.336Z,64.18
2023-02-01T17:07:59.106Z,64.02
2023-02-01T17:10:34.008Z,64.29
2023-02-01T17:13:03.134Z,64.29
2023-02-01T17:15:36.853Z,63.76
2023-02-01T17:18:05.347Z,64.31
2023-02-01T17:20:35.378Z,64.03
2023-02-01T17:23:05.297Z,64.41
2023-02-01T17:25:33.314Z,64.17
2023-02-01T17:28:01.578Z,64.58
2023-02-01T17:30:31.000Z,64.48
2023-02-01T17:33:02.102Z,64.91
2023-02-01T17:35:34.819Z,64.63
2023-02-01T17:38:02.773Z,64.67
2023-02-01T17:40:31.735Z,65.17
2023-02-01T17:42:59.688Z,65.10
2023-02-01T17:45:37.667Z,65.28
2023-02-01T17:48:07.023Z,65.27
2023-02-01T17:50:38.487Z,65.32
2023-02-01T17:53:09.937Z,65.45
2023-02-01T17:55:41.962Z,65.26
2023-02-01T17:58:12.723Z,64.58
2023-02-01T18:00:40.771Z,64.65
2023-02-01T18:03:16.172Z,64.98
2023-02-01T18:05:51.056Z,65.37
2023-02-01T18:08:21.727Z,65.70
2023-02-01T18:10:51.852Z,65.84
2023-02-01T18:13:20.038Z,67.33
2023-02-01T18:15:48.173Z,68.68
2023-02-01T18:18:16.099Z,70.02
2023-02-01T18:20:47.519Z,71.56
2023-02-01T18:23:21.936Z,73.00
2023-02-01T18:25:51.481Z,75.64
2023-02-01T18:28:20.580Z,76.75
2023-02-01T18:30:50.879Z,78.19
2023-02-01T18:33:21.098Z,78.61
2023-02-01T18:35:50.723Z,79.94
2023-02-01T18:38:18.697Z,79.89
2023-02-01T18:40:51.665Z,80.50
2023-02-01T18:43:19.827Z,81.85
2023-02-01T18:45:48.871Z,81.96
2023-02-01T18:48:19.513Z,82.71
2023-02-01T18:50:47.651Z,82.56
2023-02-01T18:53:20.045Z,83.61
2023-02-01T18:55:48.774Z,84.51
2023-02-01T18:58:18.572Z,84.98
2023-02-01T19:00:47.666Z,85.18
2023-02-01T19:03:16.804Z,84.50
2023-02-01T19:05:44.692Z,84.57
2023-02-01T19:08:12.566Z,84.73
2023-02-01T19:10:45.867Z,84.88
2023-02-01T19:13:14.363Z,84.88
2023-02-01T19:15:42.833Z,85.13
2023-02-01T19:18:11.783Z,86.18
2023-02-01T19:20:45.604Z,85.66
2023-02-01T19:23:13.972Z,86.73
2023-02-01T19:25:46.823Z,86.61
2023-02-01T19:28:14.776Z,86.95
2023-02-01T19:30:43.480Z,88.09
2023-02-01T19:33:11.705Z,87.60
2023-02-01T19:35:39.726Z,88.25
2023-02-01T19:38:11.804Z,88.83
2023-02-01T19:40:39.674Z,88.21
2023-02-01T19:43:09.276Z,88.92
2023-02-01T19:45:37.152Z,89.59
2023-02-01T19:48:07.742Z,89.00
2023-02-01T19:50:35.701Z,89.09
2023-02-01T19:53:03.583Z,89.98
2023-02-01T19:55:31.472Z,90.74
2023-02-01T19:57:59.786Z,90.41
2023-02-01T20:00:28.570Z,91.65
2023-02-01T20:02:56.530Z,92.28
2023-02-01T20:05:24.763Z,91.72
2023-02-01T20:07:52.874Z,91.36
2023-02-01T20:10:20.746Z,91.72
2023-02-01T20:12:49.653Z,90.51
2023-02-01T20:15:17.886Z,90.66
2023-02-01T20:17:47.200Z,90.12
2023-02-01T20:20:15.445Z,90.27
2023-02-01T20:22:45.944Z,90.48
2023-02-01T20:25:13.923Z,90.65
2023-02-01T20:27:42.655Z,90.42
2023-02-01T20:30:11.808Z,89.92
2023-02-01T20:32:39.703Z,89.86
2023-02-01T20:35:10.190Z,90.14
2023-02-01T20:37:38.174Z,89.81
2023-02-01T20:40:06.859Z,90.00
2023-02-01T20:42:36.082Z,89.31
2023-02-01T20:45:04.407Z,89.22
2023-02-01T20:47:32.733Z,88.68
2023-02-01T20:50:00.707Z,88.81
2023-02-01T20:52:30.046Z,88.05
2023-02-01T20:54:57.941Z,89.18
2023-02-01T20:57:26.293Z,89.47
2023-02-01T20:59:54.974Z,88.80
2023-02-01T21:02:22.967Z,89.33
2023-02-01T21:04:50.862Z,89.44
2023-02-01T21:07:18.832Z,89.79
2023-02-01T21:09:48.059Z,89.94
2023-02-01T21:12:15.981Z,88.87
2023-02-01T21:14:43.904Z,88.97
2023-02-01T21:17:11.912Z,88.90
2023-02-01T21:19:43.944Z,89.18
2023-02-01T21:22:12.682Z,88.31
2023-02-01T21:24:41.123Z,87.82
2023-02-01T21:27:10.845Z,87.57
2023-02-01T21:29:39.111Z,88.19
2023-02-01T21:32:07.858Z,87.27
2023-02-01T21:34:36.807Z,87.77
2023-02-01T21:37:05.005Z,88.23
2023-02-01T21:39:32.875Z,88.35
2023-02-01T21:42:17.595Z,88.24
2023-02-01T21:44:48.475Z,88.36
2023-02-01T21:47:17.928Z,87.99
2023-02-01T21:49:48.060Z,87.70
2023-02-01T21:52:17.555Z,87.39
2023-02-01T21:54:45.442Z,87.56
2023-02-01T21:57:13.806Z,87.36
2023-02-01T21:59:43.235Z,87.35
2023-02-01T22:02:16.219Z,87.36
2023-02-01T22:04:44.581Z,87.19
2023-02-01T22:07:13.051Z,87.77
2023-02-01T22:09:41.354Z,87.77
2023-02-01T22:12:13.052Z,86.63
2023-02-01T22:14:44.861Z,86.75
2023-02-01T22:17:14.373Z,86.35
2023-02-01T22:19:43.532Z,86.18
2023-02-01T22:22:12.689Z,85.97
2023-02-01T22:24:40.539Z,85.99
2023-02-01T22:27:14.136Z,87.45
2023-02-01T22:29:43.685Z,85.72
2023-02-01T22:32:14.013Z,85.76
2023-02-01T22:34:42.122Z,85.67
2023-02-01T22:37:11.253Z,85.23
2023-02-01T22:39:40.321Z,85.67
2023-02-01T22:42:08.228Z,86.01
2023-02-01T22:44:36.075Z,85.74
2023-02-01T22:47:04.077Z,85.85
2023-02-01T22:49:35.404Z,86.11
2023-02-01T22:52:03.422Z,85.88
2023-02-01T22:54:31.343Z,86.39
2023-02-01T22:57:00.295Z,86.37
2023-02-01T22:59:28.266Z,86.08
2023-02-01T23:01:56.120Z,86.14
2023-02-01T23:04:23.969Z,86.84
2023-02-01T23:06:54.032Z,86.51
2023-02-01T23:09:25.154Z,86.34
2023-02-01T23:11:53.492Z,86.05
2023-02-01T23:14:21.735Z,86.13
2023-02-01T23:16:50.913Z,85.57
2023-02-01T23:19:20.469Z,85.03
2023-02-01T23:21:48.670Z,83.69
2023-02-01T23:24:18.031Z,81.94
2023-02-01T23:26:45.962Z,79.52
2023-02-01T23:29:19.810Z,77.35
2023-02-01T23:31:47.924Z,75.80
2023-02-01T23:34:15.806Z,74.92
2023-02-01T23:36:43.818Z,74.47
2023-02-01T23:39:11.721Z,74.29
2023-02-01T23:41:41.166Z,74.22
2023-02-01T23:44:09.298Z,74.53
2023-02-01T23:46:39.038Z,74.58
2023-02-01T23:49:09.434Z,75.03
2023-02-01T23:51:37.938Z,75.00
2023-02-01T23:54:06.449Z,75.18
2023-02-01T23:56:36.203Z,75.50
2023-02-01T23:59:08.101Z,75.28
